Bookmark and Share
Track history (hours):
 

HMS Monmouth

Last reported at 2013-Oct-25 08:33 UTC. Time now 2014-Apr-24 00:13 UTC.
Position N 50°23' W 004°11'.
Warning: this ship's position is months out of date.

; draft 3 m.

MMSI: 234617000.

NotesDate/timePositionNaut miles runAvg speedWind from/ knotsBaromVisibWave heightAir tempDewpointWater temp
2013-Oct-25 08:33N 50°23' W 004°11'3 2.6
2013-Oct-25 07:33N 50°21' W 004°08'0 0.1
2013-Oct-25 06:33N 50°21' W 004°09'0 0.0
2013-Oct-25 05:34N 50°21' W 004°09'0 0.0
2013-Oct-25 04:34N 50°21' W 004°09'0 0.0
2013-Oct-25 03:33N 50°21' W 004°09'0 0.0
2013-Oct-25 02:33N 50°21' W 004°09'0 0.0
2013-Oct-25 01:34N 50°21' W 004°09'0 0.0
2013-Oct-25 00:33N 50°21' W 004°09'0 0.0
2013-Oct-24 23:33N 50°21' W 004°09'0 0.0
2013-Oct-24 22:33N 50°21' W 004°09'0 0.0
2013-Oct-24 21:33N 50°21' W 004°09'0 0.0
2013-Oct-24 20:33N 50°21' W 004°09'0 0.0
2013-Oct-24 19:34N 50°21' W 004°09'0 0.0
2013-Oct-24 18:33N 50°21' W 004°09'0 0.0
2013-Oct-24 17:33N 50°21' W 004°09'0 0.4
2013-Oct-24 16:34N 50°20' W 004°09'17013.8
2013-Oct-24 04:18N 50°31' E 000°17'1723.1
2013-Oct-24 03:34N 50°38' E 000°42'2421.6
2013-Oct-24 02:27N 50°54' E 001°10'2022.2
2013-Oct-24 01:34N 51°06' E 001°34'2625.5
2013-Oct-24 00:34N 51°27' E 001°57'10827.1
2013-Oct-23 20:33N 52°52' E 003°48'2524.8
2013-Oct-23 19:33N 53°08' E 004°20'3222.5
2013-Oct-23 18:10N 53°33' E 004°52'1423.7
2013-Oct-23 17:34N 53°37' E 005°14'2625.5
2013-Oct-23 16:33N 53°45' E 005°56'7323.1
2013-Oct-23 13:25N 54°01' E 007°56'1619.1
2013-Oct-23 12:34N 53°59' E 008°23'1615.9
2013-Oct-23 11:34N 53°51' E 008°46'1515.2
2013-Oct-23 10:33N 53°53' E 009°12'1716.9
2013-Oct-23 09:33N 53°40' E 009°31'1613.0
2013-Oct-23 08:21N 53°33' E 009°54'3 1.4
2013-Oct-23 06:23N 53°33' E 009°59'  
2013-Oct-19 12:11N 53°33' E 009°57'8 9.4
2013-Oct-19 11:20N 53°34' E 009°44'810.4
2013-Oct-19 10:32N 53°38' E 009°32'1111.8
2013-Oct-19 09:33N 53°48' E 009°22'1313.0
2013-Oct-19 08:33N 53°51' E 009°01'1211.6
2013-Oct-19 07:34N 53°54' E 008°42'1514.1
2013-Oct-19 06:30N 53°59' E 008°18'1111.3
2013-Oct-19 05:31N 54°01' E 007°60'  

Dump ship's entire track history

sailing weather and tide predictions

HMS Monmouth — GCOZ — position and weather